sensor_id;sensor_type;location;lat;lon;timestamp;pressure;altitude;pressure_sealevel;temperature;humidity
77685;BME280;66844;46.092;18.268;2023-06-14T00:00:16;98958.38;;;15.31;55.70
77685;BME280;66844;46.092;18.268;2023-06-14T00:00:49;98956.66;;;15.30;55.85
77685;BME280;66844;46.092;18.268;2023-06-14T00:01:21;98955.56;;;15.32;55.86
77685;BME280;66844;46.092;18.268;2023-06-14T00:01:53;98960.19;;;15.30;55.75
77685;BME280;66844;46.092;18.268;2023-06-14T00:02:27;98960.78;;;15.34;55.81
77685;BME280;66844;46.092;18.268;2023-06-14T00:02:59;98954.59;;;15.33;55.79
77685;BME280;66844;46.092;18.268;2023-06-14T00:03:31;98947.66;;;15.31;55.52
77685;BME280;66844;46.092;18.268;2023-06-14T00:04:04;98954.97;;;15.29;55.49
77685;BME280;66844;46.092;18.268;2023-06-14T00:04:38;98958.94;;;15.34;56.07
77685;BME280;66844;46.092;18.268;2023-06-14T00:05:11;98955.19;;;15.37;56.30
77685;BME280;66844;46.092;18.268;2023-06-14T00:05:46;98954.31;;;15.36;55.52
77685;BME280;66844;46.092;18.268;2023-06-14T00:06:18;98955.19;;;15.37;55.76
77685;BME280;66844;46.092;18.268;2023-06-14T00:06:50;98956.00;;;15.37;55.92
77685;BME280;66844;46.092;18.268;2023-06-14T00:07:37;98948.97;;;15.36;55.53
77685;BME280;66844;46.092;18.268;2023-06-14T00:08:10;98960.41;;;15.38;55.59
77685;BME280;66844;46.092;18.268;2023-06-14T00:08:42;98956.28;;;15.34;55.75
77685;BME280;66844;46.092;18.268;2023-06-14T00:09:14;98957.00;;;15.36;55.77
77685;BME280;66844;46.092;18.268;2023-06-14T00:09:49;98959.81;;;15.35;55.88
77685;BME280;66844;46.092;18.268;2023-06-14T00:10:21;98954.44;;;15.35;55.86
77685;BME280;66844;46.092;18.268;2023-06-14T00:10:53;98956.28;;;15.34;55.52
77685;BME280;66844;46.092;18.268;2023-06-14T00:11:25;98952.88;;;15.32;55.78
77685;BME280;66844;46.092;18.268;2023-06-14T00:11:58;98958.09;;;15.34;55.78
77685;BME280;66844;46.092;18.268;2023-06-14T00:12:30;98960.66;;;15.35;55.78
77685;BME280;66844;46.092;18.268;2023-06-14T00:13:03;98957.13;;;15.35;55.64
77685;BME280;66844;46.092;18.268;2023-06-14T00:13:39;98962.38;;;15.36;56.07
77685;BME280;66844;46.092;18.268;2023-06-14T00:14:11;98948.50;;;15.31;55.67
77685;BME280;66844;46.092;18.268;2023-06-14T00:14:43;98951.19;;;15.31;55.50
77685;BME280;66844;46.092;18.268;2023-06-14T00:15:15;98960.53;;;15.37;55.32
77685;BME280;66844;46.092;18.268;2023-06-14T00:15:46;98956.00;;;15.37;55.29
77685;BME280;66844;46.092;18.268;2023-06-14T00:16:19;98949.81;;;15.37;55.33
77685;BME280;66844;46.092;18.268;2023-06-14T00:16:51;98964.03;;;15.37;55.58
77685;BME280;66844;46.092;18.268;2023-06-14T00:17:24;98953.31;;;15.37;55.36
77685;BME280;66844;46.092;18.268;2023-06-14T00:17:57;98954.06;;;15.39;55.31
77685;BME280;66844;46.092;18.268;2023-06-14T00:18:32;98953.22;;;15.39;55.68
77685;BME280;66844;46.092;18.268;2023-06-14T00:19:04;98962.81;;;15.41;55.15
77685;BME280;66844;46.092;18.268;2023-06-14T00:19:36;98958.28;;;15.42;54.96
77685;BME280;66844;46.092;18.268;2023-06-14T00:20:09;98962.69;;;15.43;55.10
77685;BME280;66844;46.092;18.268;2023-06-14T00:20:42;98958.44;;;15.40;55.10
77685;BME280;66844;46.092;18.268;2023-06-14T00:21:14;98957.59;;;15.40;54.70
77685;BME280;66844;46.092;18.268;2023-06-14T00:21:46;98956.84;;;15.38;55.15
77685;BME280;66844;46.092;18.268;2023-06-14T00:22:19;98959.28;;;15.41;55.05
77685;BME280;66844;46.092;18.268;2023-06-14T00:22:51;98953.22;;;15.39;55.25
77685;BME280;66844;46.092;18.268;2023-06-14T00:23:23;98959.16;;;15.42;54.97
77685;BME280;66844;46.092;18.268;2023-06-14T00:23:57;98953.91;;;15.41;55.23
77685;BME280;66844;46.092;18.268;2023-06-14T00:24:29;98960.13;;;15.41;55.22
77685;BME280;66844;46.092;18.268;2023-06-14T00:25:01;98951.50;;;15.38;55.20
77685;BME280;66844;46.092;18.268;2023-06-14T00:25:53;98952.22;;;15.40;55.29
77685;BME280;66844;46.092;18.268;2023-06-14T00:26:25;98958.28;;;15.42;55.14
77685;BME280;66844;46.092;18.268;2023-06-14T00:26:57;98963.53;;;15.43;55.08
77685;BME280;66844;46.092;18.268;2023-06-14T00:27:30;98957.31;;;15.43;55.13
77685;BME280;66844;46.092;18.268;2023-06-14T00:28:02;98961.56;;;15.45;55.06
77685;BME280;66844;46.092;18.268;2023-06-14T00:28:34;98957.91;;;15.46;54.96
77685;BME280;66844;46.092;18.268;2023-06-14T00:29:06;98955.34;;;15.45;55.11
77685;BME280;66844;46.092;18.268;2023-06-14T00:29:38;98951.97;;;15.43;55.56
77685;BME280;66844;46.092;18.268;2023-06-14T00:30:11;98958.44;;;15.40;55.84
77685;BME280;66844;46.092;18.268;2023-06-14T00:30:43;98953.31;;;15.37;55.96
77685;BME280;66844;46.092;18.268;2023-06-14T00:31:18;98958.09;;;15.34;56.54
77685;BME280;66844;46.092;18.268;2023-06-14T00:31:50;98953.59;;;15.34;56.44
77685;BME280;66844;46.092;18.268;2023-06-14T00:32:22;98952.16;;;15.30;56.29
77685;BME280;66844;46.092;18.268;2023-06-14T00:32:57;98950.31;;;15.31;56.66
77685;BME280;66844;46.092;18.268;2023-06-14T00:33:29;98953.00;;;15.31;57.02
77685;BME280;66844;46.092;18.268;2023-06-14T00:34:02;98949.63;;;15.29;56.88
77685;BME280;66844;46.092;18.268;2023-06-14T00:34:34;98953.38;;;15.26;57.30
77685;BME280;66844;46.092;18.268;2023-06-14T00:35:06;98951.72;;;15.25;57.49
77685;BME280;66844;46.092;18.268;2023-06-14T00:35:40;98944.75;;;15.23;57.87
77685;BME280;66844;46.092;18.268;2023-06-14T00:36:12;98945.78;;;15.22;57.92
77685;BME280;66844;46.092;18.268;2023-06-14T00:36:44;98954.03;;;15.19;58.46
77685;BME280;66844;46.092;18.268;2023-06-14T00:37:16;98958.59;;;15.18;58.55
77685;BME280;66844;46.092;18.268;2023-06-14T00:37:48;98943.75;;;15.14;58.51
77685;BME280;66844;46.092;18.268;2023-06-14T00:38:20;98951.78;;;15.14;58.76
77685;BME280;66844;46.092;18.268;2023-06-14T00:38:52;98952.47;;;15.16;57.60
77685;BME280;66844;46.092;18.268;2023-06-14T00:39:24;98956.88;;;15.17;57.50
77685;BME280;66844;46.092;18.268;2023-06-14T00:39:56;98950.78;;;15.15;57.86
77685;BME280;66844;46.092;18.268;2023-06-14T00:40:28;98955.44;;;15.13;58.42
77685;BME280;66844;46.092;18.268;2023-06-14T00:41:00;98952.16;;;15.10;58.37
77685;BME280;66844;46.092;18.268;2023-06-14T00:41:32;98947.41;;;15.13;58.60
77685;BME280;66844;46.092;18.268;2023-06-14T00:42:05;98952.16;;;15.10;58.76
77685;BME280;66844;46.092;18.268;2023-06-14T00:42:37;98952.16;;;15.10;58.76
77685;BME280;66844;46.092;18.268;2023-06-14T00:43:10;98947.78;;;15.09;58.76
77685;BME280;66844;46.092;18.268;2023-06-14T00:43:42;98953.13;;;15.09;58.58
77685;BME280;66844;46.092;18.268;2023-06-14T00:44:16;98954.97;;;15.08;58.29
77685;BME280;66844;46.092;18.268;2023-06-14T00:44:49;98952.28;;;15.08;58.55
77685;BME280;66844;46.092;18.268;2023-06-14T00:45:21;98950.00;;;15.03;58.11
77685;BME280;66844;46.092;18.268;2023-06-14T00:45:53;98941.13;;;15.03;57.81
77685;BME280;66844;46.092;18.268;2023-06-14T00:46:25;98944.03;;;15.00;57.85
77685;BME280;66844;46.092;18.268;2023-06-14T00:46:57;98954.25;;;15.06;57.85
77685;BME280;66844;46.092;18.268;2023-06-14T00:47:29;98951.69;;;15.04;57.66
77685;BME280;66844;46.092;18.268;2023-06-14T00:48:02;98947.44;;;15.02;57.86
77685;BME280;66844;46.092;18.268;2023-06-14T00:48:37;98942.34;;;14.99;57.60
77685;BME280;66844;46.092;18.268;2023-06-14T00:49:10;98952.44;;;15.07;57.70
77685;BME280;66844;46.092;18.268;2023-06-14T00:49:45;98954.09;;;15.07;57.21
77685;BME280;66844;46.092;18.268;2023-06-14T00:50:17;98955.81;;;15.09;56.67
77685;BME280;66844;46.092;18.268;2023-06-14T00:50:52;98952.28;;;15.08;56.85
77685;BME280;66844;46.092;18.268;2023-06-14T00:51:24;98955.09;;;15.07;56.49
77685;BME280;66844;46.092;18.268;2023-06-14T00:51:56;98941.97;;;15.03;56.98
77685;BME280;66844;46.092;18.268;2023-06-14T00:52:28;98950.59;;;15.07;56.77
77685;BME280;66844;46.092;18.268;2023-06-14T00:53:01;98953.88;;;15.11;56.84
77685;BME280;66844;46.092;18.268;2023-06-14T00:53:34;98949.59;;;15.08;56.40
77685;BME280;66844;46.092;18.268;2023-06-14T00:54:08;98947.78;;;15.09;56.38
77685;BME280;66844;46.092;18.268;2023-06-14T00:54:40;98949.22;;;15.13;56.56
77685;BME280;66844;46.092;18.268;2023-06-14T00:55:15;98952.00;;;15.11;56.84
77685;BME280;66844;46.092;18.268;2023-06-14T00:55:48;98944.66;;;15.03;56.93
77685;BME280;66844;46.092;18.268;2023-06-14T00:56:20;98949.59;;;15.08;57.29
77685;BME280;66844;46.092;18.268;2023-06-14T00:56:52;98948.63;;;15.09;56.99
77685;BME280;66844;46.092;18.268;2023-06-14T00:57:24;98949.59;;;15.08;57.14
77685;BME280;66844;46.092;18.268;2023-06-14T00:57:56;98941.72;;;15.07;57.13
77685;BME280;66844;46.092;18.268;2023-06-14T00:58:29;98939.41;;;15.02;57.64
77685;BME280;66844;46.092;18.268;2023-06-14T00:59:03;98939.41;;;15.02;57.78
77685;BME280;66844;46.092;18.268;2023-06-14T00:59:45;98942.22;;;15.00;57.84
77685;BME280;66844;46.092;18.268;2023-06-14T01:00:17;98946.72;;;15.00;57.88
77685;BME280;66844;46.092;18.268;2023-06-14T01:00:49;98940.66;;;14.98;58.67
77685;BME280;66844;46.092;18.268;2023-06-14T01:01:23;98937.97;;;14.98;58.20
77685;BME280;66844;46.092;18.268;2023-06-14T01:01:55;98942.63;;;14.96;58.07
77685;BME280;66844;46.092;18.268;2023-06-14T01:02:27;98940.91;;;14.95;57.93
77685;BME280;66844;46.092;18.268;2023-06-14T01:03:00;98944.28;;;14.97;58.01
77685;BME280;66844;46.092;18.268;2023-06-14T01:03:33;98940.75;;;14.96;58.30
77685;BME280;66844;46.092;18.268;2023-06-14T01:04:05;98948.69;;;14.98;57.46
77685;BME280;66844;46.092;18.268;2023-06-14T01:04:39;98939.41;;;15.02;57.46
77685;BME280;66844;46.092;18.268;2023-06-14T01:05:17;98937.59;;;15.02;57.47
77685;BME280;66844;46.092;18.268;2023-06-14T01:05:59;98936.16;;;14.98;57.13
77685;BME280;66844;46.092;18.268;2023-06-14T01:08:05;98946.34;;;15.04;57.41
77685;BME280;66844;46.092;18.268;2023-06-14T01:08:47;98946.59;;;15.01;57.63
77685;BME280;66844;46.092;18.268;2023-06-14T01:10:15;98934.69;;;14.94;57.87
77685;BME280;66844;46.092;18.268;2023-06-14T01:10:35;98943.44;;;14.96;57.98
77685;BME280;66844;46.092;18.268;2023-06-14T01:11:16;98937.06;;;14.88;57.73
77685;BME280;66844;46.092;18.268;2023-06-14T01:11:54;98939.47;;;14.91;57.84
77685;BME280;66844;46.092;18.268;2023-06-14T01:12:36;98952.28;;;14.87;57.94
77685;BME280;66844;46.092;18.268;2023-06-14T01:13:32;98941.56;;;14.87;57.91
77685;BME280;66844;46.092;18.268;2023-06-14T01:14:06;98939.00;;;14.86;57.66
77685;BME280;66844;46.092;18.268;2023-06-14T01:14:39;98941.66;;;14.86;57.86
77685;BME280;66844;46.092;18.268;2023-06-14T01:15:13;98941.66;;;14.86;58.17
77685;BME280;66844;46.092;18.268;2023-06-14T01:15:47;98940.69;;;14.87;57.75
77685;BME280;66844;46.092;18.268;2023-06-14T01:16:20;98942.69;;;14.85;57.61
77685;BME280;66844;46.092;18.268;2023-06-14T01:16:53;98945.47;;;14.83;57.75
77685;BME280;66844;46.092;18.268;2023-06-14T01:17:26;98939.41;;;14.81;57.85
77685;BME280;66844;46.092;18.268;2023-06-14T01:17:58;98926.50;;;14.75;57.94
77685;BME280;66844;46.092;18.268;2023-06-14T01:18:35;98942.31;;;14.78;58.21
77685;BME280;66844;46.092;18.268;2023-06-14T01:19:11;98939.78;;;14.77;58.24
77685;BME280;66844;46.092;18.268;2023-06-14T01:19:45;98940.88;;;14.74;57.84
77685;BME280;66844;46.092;18.268;2023-06-14T01:20:20;98944.28;;;14.76;57.79
77685;BME280;66844;46.092;18.268;2023-06-14T01:20:52;98939.03;;;14.75;57.92
77685;BME280;66844;46.092;18.268;2023-06-14T01:21:27;98943.69;;;14.73;58.09
77685;BME280;66844;46.092;18.268;2023-06-14T01:22:02;98936.03;;;14.68;58.56
77685;BME280;66844;46.092;18.268;2023-06-14T01:22:34;98940.16;;;14.72;58.18
77685;BME280;66844;46.092;18.268;2023-06-14T01:23:07;98934.06;;;14.70;58.37
77685;BME280;66844;46.092;18.268;2023-06-14T01:23:39;98935.91;;;14.70;57.73
77685;BME280;66844;46.092;18.268;2023-06-14T01:24:11;98932.13;;;14.72;57.74
77685;BME280;66844;46.092;18.268;2023-06-14T01:24:43;98936.63;;;14.72;57.73
77685;BME280;66844;46.092;18.268;2023-06-14T01:25:17;98931.91;;;14.64;57.85
77685;BME280;66844;46.092;18.268;2023-06-14T01:25:52;98937.75;;;14.69;57.92
77685;BME280;66844;46.092;18.268;2023-06-14T01:26:24;98933.34;;;14.68;57.95
77685;BME280;66844;46.092;18.268;2023-06-14T01:27:02;98936.88;;;14.69;57.97
77685;BME280;66844;46.092;18.268;2023-06-14T01:27:35;98917.22;;;14.59;58.01
77685;BME280;66844;46.092;18.268;2023-06-14T01:28:07;98927.53;;;14.63;57.91
77685;BME280;66844;46.092;18.268;2023-06-14T01:28:42;98932.66;;;14.66;57.86
77685;BME280;66844;46.092;18.268;2023-06-14T01:29:20;98934.06;;;14.70;58.01
77685;BME280;66844;46.092;18.268;2023-06-14T01:29:54;98933.47;;;14.67;58.51
77685;BME280;66844;46.092;18.268;2023-06-14T01:30:29;98939.56;;;14.69;57.78
77685;BME280;66844;46.092;18.268;2023-06-14T01:31:06;98933.63;;;14.65;57.99
77685;BME280;66844;46.092;18.268;2023-06-14T01:31:39;98931.53;;;14.69;58.26
77685;BME280;66844;46.092;18.268;2023-06-14T01:32:13;98926.44;;;14.66;58.04
77685;BME280;66844;46.092;18.268;2023-06-14T01:32:47;98924.72;;;14.65;58.23
77685;BME280;66844;46.092;18.268;2023-06-14T01:33:21;98935.06;;;14.69;57.75
77685;BME280;66844;46.092;18.268;2023-06-14T01:33:53;98931.53;;;14.69;57.70
77685;BME280;66844;46.092;18.268;2023-06-14T01:34:26;98931.53;;;14.69;57.60
77685;BME280;66844;46.092;18.268;2023-06-14T01:34:58;98932.25;;;14.71;57.38
77685;BME280;66844;46.092;18.268;2023-06-14T01:35:31;98939.19;;;14.73;57.22
77685;BME280;66844;46.092;18.268;2023-06-14T01:36:05;98926.28;;;14.67;57.25
77685;BME280;66844;46.092;18.268;2023-06-14T01:36:41;98936.50;;;14.73;57.23
77685;BME280;66844;46.092;18.268;2023-06-14T01:37:15;98926.19;;;14.69;57.34
77685;BME280;66844;46.092;18.268;2023-06-14T01:37:49;98931.16;;;14.73;57.43
77685;BME280;66844;46.092;18.268;2023-06-14T01:38:24;98934.81;;;14.72;57.08
77685;BME280;66844;46.092;18.268;2023-06-14T01:38:58;98934.81;;;14.72;57.63
77685;BME280;66844;46.092;18.268;2023-06-14T01:39:32;98925.31;;;14.68;57.66
77685;BME280;66844;46.092;18.268;2023-06-14T01:40:09;98926.78;;;14.72;57.48
77685;BME280;66844;46.092;18.268;2023-06-14T01:40:47;98926.66;;;14.74;57.13
77685;BME280;66844;46.092;18.268;2023-06-14T01:41:21;98911.34;;;14.65;57.11
77685;BME280;66844;46.092;18.268;2023-06-14T01:41:54;98929.19;;;14.75;57.65
77685;BME280;66844;46.092;18.268;2023-06-14T01:42:26;98928.34;;;14.75;57.34
77685;BME280;66844;46.092;18.268;2023-06-14T01:42:59;98923.97;;;14.74;56.77
77685;BME280;66844;46.092;18.268;2023-06-14T01:43:33;98931.75;;;14.77;56.38
77685;BME280;66844;46.092;18.268;2023-06-14T01:44:06;98928.94;;;14.78;56.51
77685;BME280;66844;46.092;18.268;2023-06-14T01:44:42;98919.22;;;14.77;56.79
77685;BME280;66844;46.092;18.268;2023-06-14T01:45:15;98920.19;;;14.76;56.44
77685;BME280;66844;46.092;18.268;2023-06-14T01:45:49;98920.28;;;14.75;56.35
77685;BME280;66844;46.092;18.268;2023-06-14T01:46:23;98924.69;;;14.76;56.34
77685;BME280;66844;46.092;18.268;2023-06-14T01:46:55;98921.31;;;14.74;56.50
77685;BME280;66844;46.092;18.268;2023-06-14T01:47:29;98929.19;;;14.75;56.99
77685;BME280;66844;46.092;18.268;2023-06-14T01:48:02;98921.16;;;14.75;56.68
77685;BME280;66844;46.092;18.268;2023-06-14T01:48:34;98933.56;;;14.76;56.42
77685;BME280;66844;46.092;18.268;2023-06-14T01:49:06;98927.38;;;14.76;56.43
77685;BME280;66844;46.092;18.268;2023-06-14T01:49:39;98928.34;;;14.75;56.23
77685;BME280;66844;46.092;18.268;2023-06-14T01:50:11;98924.69;;;14.76;56.56
77685;BME280;66844;46.092;18.268;2023-06-14T01:50:45;98927.47;;;14.74;56.30
77685;BME280;66844;46.092;18.268;2023-06-14T01:51:17;98912.91;;;14.67;56.39
77685;BME280;66844;46.092;18.268;2023-06-14T01:51:49;98924.56;;;14.77;55.95
77685;BME280;66844;46.092;18.268;2023-06-14T01:52:21;98923.72;;;14.77;55.55
77685;BME280;66844;46.092;18.268;2023-06-14T01:52:53;98926.38;;;14.77;55.88
77685;BME280;66844;46.092;18.268;2023-06-14T01:53:26;98920.28;;;14.75;56.01
77685;BME280;66844;46.092;18.268;2023-06-14T01:53:58;98931.59;;;14.78;55.83
77685;BME280;66844;46.092;18.268;2023-06-14T01:54:31;98923.56;;;14.78;56.08
77685;BME280;66844;46.092;18.268;2023-06-14T01:55:07;98930.91;;;14.76;56.02
77685;BME280;66844;46.092;18.268;2023-06-14T01:55:39;98924.56;;;14.77;55.96
77685;BME280;66844;46.092;18.268;2023-06-14T01:56:15;98928.22;;;14.76;56.10
77685;BME280;66844;46.092;18.268;2023-06-14T01:56:47;98927.25;;;14.77;56.33
77685;BME280;66844;46.092;18.268;2023-06-14T01:57:19;98923.56;;;14.78;56.01
77685;BME280;66844;46.092;18.268;2023-06-14T01:57:53;98929.78;;;14.79;56.14
77685;BME280;66844;46.092;18.268;2023-06-14T01:58:25;98930.03;;;14.76;55.95
77685;BME280;66844;46.092;18.268;2023-06-14T01:58:57;98927.38;;;14.76;56.01
77685;BME280;66844;46.092;18.268;2023-06-14T01:59:29;98931.28;;;14.72;56.02
77685;BME280;66844;46.092;18.268;2023-06-14T02:00:04;98925.22;;;14.70;56.12
77685;BME280;66844;46.092;18.268;2023-06-14T02:00:39;98933.84;;;14.73;56.32
77685;BME280;66844;46.092;18.268;2023-06-14T02:01:12;98923.34;;;14.70;56.45
77685;BME280;66844;46.092;18.268;2023-06-14T02:01:44;98928.47;;;14.73;56.16
77685;BME280;66844;46.092;18.268;2023-06-14T02:02:18;98916.69;;;14.65;56.12
77685;BME280;66844;46.092;18.268;2023-06-14T02:02:50;98925.31;;;14.68;56.32
77685;BME280;66844;46.092;18.268;2023-06-14T02:03:22;98926.28;;;14.67;56.10
77685;BME280;66844;46.092;18.268;2023-06-14T02:03:55;98928.38;;;14.64;56.35
77685;BME280;66844;46.092;18.268;2023-06-14T02:04:27;98927.53;;;14.63;56.28
77685;BME280;66844;46.092;18.268;2023-06-14T02:04:59;98932.75;;;14.65;56.34
77685;BME280;66844;46.092;18.268;2023-06-14T02:05:31;98929.13;;;14.66;56.40
77685;BME280;66844;46.092;18.268;2023-06-14T02:06:03;98926.56;;;14.64;55.96
77685;BME280;66844;46.092;18.268;2023-06-14T02:06:35;98927.66;;;14.62;55.85
77685;BME280;66844;46.092;18.268;2023-06-14T02:07:07;98929.22;;;14.64;56.10
77685;BME280;66844;46.092;18.268;2023-06-14T02:07:40;98934.72;;;14.63;56.23
77685;BME280;66844;46.092;18.268;2023-06-14T02:08:12;98926.06;;;14.59;56.10
77685;BME280;66844;46.092;18.268;2023-06-14T02:08:43;98926.94;;;14.60;56.38
77685;BME280;66844;46.092;18.268;2023-06-14T02:09:16;98932.06;;;14.63;56.30
77685;BME280;66844;46.092;18.268;2023-06-14T02:09:49;98938.22;;;14.63;56.04
77685;BME280;66844;46.092;18.268;2023-06-14T02:10:21;98934.72;;;14.63;56.60
77685;BME280;66844;46.092;18.268;2023-06-14T02:10:53;98934.84;;;14.61;56.71
77685;BME280;66844;46.092;18.268;2023-06-14T02:11:25;98933.13;;;14.60;56.65
77685;BME280;66844;46.092;18.268;2023-06-14T02:11:58;98934.09;;;14.59;57.05
77685;BME280;66844;46.092;18.268;2023-06-14T02:12:30;98935.97;;;14.59;56.84
77685;BME280;66844;46.092;18.268;2023-06-14T02:13:02;98932.53;;;14.56;56.97
77685;BME280;66844;46.092;18.268;2023-06-14T02:13:35;98936.06;;;14.57;56.96
77685;BME280;66844;46.092;18.268;2023-06-14T02:14:06;98935.09;;;14.58;57.29
77685;BME280;66844;46.092;18.268;2023-06-14T02:14:39;98925.47;;;14.55;57.00
77685;BME280;66844;46.092;18.268;2023-06-14T02:15:11;98930.13;;;14.53;56.80
77685;BME280;66844;46.092;18.268;2023-06-14T02:15:48;98932.69;;;14.55;56.67
77685;BME280;66844;46.092;18.268;2023-06-14T02:16:23;98938.88;;;14.55;56.75
77685;BME280;66844;46.092;18.268;2023-06-14T02:16:56;98939.97;;;14.53;57.00
77685;BME280;66844;46.092;18.268;2023-06-14T02:17:28;98942.53;;;14.54;56.35
77685;BME280;66844;46.092;18.268;2023-06-14T02:18:01;98935.59;;;14.52;57.25
77685;BME280;66844;46.092;18.268;2023-06-14T02:18:33;98934.03;;;14.49;56.30
77685;BME280;66844;46.092;18.268;2023-06-14T02:19:06;98934.88;;;14.50;57.26
77685;BME280;66844;46.092;18.268;2023-06-14T02:19:38;98936.44;;;14.52;56.63
77685;BME280;66844;46.092;18.268;2023-06-14T02:20:10;98932.81;;;14.53;56.72
77685;BME280;66844;46.092;18.268;2023-06-14T02:20:43;98939.88;;;14.54;56.54
77685;BME280;66844;46.092;18.268;2023-06-14T02:21:15;98936.34;;;14.54;56.68
77685;BME280;66844;46.092;18.268;2023-06-14T02:21:47;98937.19;;;14.54;56.85
77685;BME280;66844;46.092;18.268;2023-06-14T02:22:19;98935.59;;;14.52;56.65
77685;BME280;66844;46.092;18.268;2023-06-14T02:22:54;98929.53;;;14.50;56.89
77685;BME280;66844;46.092;18.268;2023-06-14T02:23:26;98939.50;;;14.48;56.89
77685;BME280;66844;46.092;18.268;2023-06-14T02:23:58;98939.13;;;14.52;56.78
77685;BME280;66844;46.092;18.268;2023-06-14T02:24:30;98939.13;;;14.52;56.62
77685;BME280;66844;46.092;18.268;2023-06-14T02:25:02;98940.13;;;14.51;56.58
77685;BME280;66844;46.092;18.268;2023-06-14T02:25:34;98934.78;;;14.51;56.54
77685;BME280;66844;46.092;18.268;2023-06-14T02:26:07;98946.31;;;14.52;56.53
77685;BME280;66844;46.092;18.268;2023-06-14T02:26:39;98938.41;;;14.50;56.70
77685;BME280;66844;46.092;18.268;2023-06-14T02:27:13;98936.00;;;14.47;56.89
77685;BME280;66844;46.092;18.268;2023-06-14T02:27:45;98934.78;;;14.51;56.76
77685;BME280;66844;46.092;18.268;2023-06-14T02:28:17;98944.38;;;14.54;56.62
77685;BME280;66844;46.092;18.268;2023-06-14T02:28:49;98942.53;;;14.54;56.59
77685;BME280;66844;46.092;18.268;2023-06-14T02:29:21;98937.91;;;14.56;56.63
77685;BME280;66844;46.092;18.268;2023-06-14T02:29:53;98932.81;;;14.53;56.36
77685;BME280;66844;46.092;18.268;2023-06-14T02:30:25;98936.19;;;14.55;56.55
77685;BME280;66844;46.092;18.268;2023-06-14T02:30:57;98939.88;;;14.54;56.93
77685;BME280;66844;46.092;18.268;2023-06-14T02:31:29;98938.88;;;14.55;56.49
77685;BME280;66844;46.092;18.268;2023-06-14T02:32:01;98939.88;;;14.54;56.88
77685;BME280;66844;46.092;18.268;2023-06-14T02:32:34;98941.81;;;14.52;56.73
77685;BME280;66844;46.092;18.268;2023-06-14T02:33:07;98938.53;;;14.49;56.97
77685;BME280;66844;46.092;18.268;2023-06-14T02:33:40;98939.50;;;14.48;56.98
77685;BME280;66844;46.092;18.268;2023-06-14T02:34:12;98936.09;;;14.46;57.50
77685;BME280;66844;46.092;18.268;2023-06-14T02:34:44;98935.59;;;14.52;56.75
77685;BME280;66844;46.092;18.268;2023-06-14T02:35:16;98937.44;;;14.51;56.44
77685;BME280;66844;46.092;18.268;2023-06-14T02:35:48;98939.97;;;14.53;56.53
77685;BME280;66844;46.092;18.268;2023-06-14T02:36:20;98941.69;;;14.54;56.44
77685;BME280;66844;46.092;18.268;2023-06-14T02:36:52;98940.94;;;14.52;56.65
77685;BME280;66844;46.092;18.268;2023-06-14T02:37:24;98934.63;;;14.53;56.50
77685;BME280;66844;46.092;18.268;2023-06-14T02:37:56;98931.84;;;14.54;56.48
77685;BME280;66844;46.092;18.268;2023-06-14T02:38:28;98934.38;;;14.56;56.64
77685;BME280;66844;46.092;18.268;2023-06-14T02:39:00;98936.94;;;14.57;56.29
77685;BME280;66844;46.092;18.268;2023-06-14T02:39:32;98941.53;;;14.55;56.30
77685;BME280;66844;46.092;18.268;2023-06-14T02:40:05;98937.78;;;14.58;55.93
77685;BME280;66844;46.092;18.268;2023-06-14T02:40:37;98941.16;;;14.60;56.00
77685;BME280;66844;46.092;18.268;2023-06-14T02:41:09;98947.38;;;14.61;55.89
77685;BME280;66844;46.092;18.268;2023-06-14T02:41:41;98943.72;;;14.62;55.48
77685;BME280;66844;46.092;18.268;2023-06-14T02:42:13;98934.84;;;14.61;55.77
77685;BME280;66844;46.092;18.268;2023-06-14T02:42:45;98933.13;;;14.60;55.66
77685;BME280;66844;46.092;18.268;2023-06-14T02:43:17;98940.31;;;14.60;55.48
77685;BME280;66844;46.092;18.268;2023-06-14T02:43:49;98934.00;;;14.61;55.43
77685;BME280;66844;46.092;18.268;2023-06-14T02:44:25;98936.41;;;14.64;55.72
77685;BME280;66844;46.092;18.268;2023-06-14T02:44:58;98940.91;;;14.63;55.65
77685;BME280;66844;46.092;18.268;2023-06-14T02:45:30;98941.75;;;14.64;55.93
77685;BME280;66844;46.092;18.268;2023-06-14T02:46:02;98939.94;;;14.64;55.49
77685;BME280;66844;46.092;18.268;2023-06-14T02:46:34;98939.94;;;14.64;55.93
77685;BME280;66844;46.092;18.268;2023-06-14T02:47:07;98935.56;;;14.63;55.93
77685;BME280;66844;46.092;18.268;2023-06-14T02:47:38;98932.75;;;14.65;56.30
77685;BME280;66844;46.092;18.268;2023-06-14T02:48:11;98939.81;;;14.66;55.68
77685;BME280;66844;46.092;18.268;2023-06-14T02:48:44;98935.31;;;14.66;55.30
77685;BME280;66844;46.092;18.268;2023-06-14T02:49:16;98923.41;;;14.59;55.39
77685;BME280;66844;46.092;18.268;2023-06-14T02:49:48;98932.66;;;14.66;55.74
77685;BME280;66844;46.092;18.268;2023-06-14T02:50:20;98924.03;;;14.63;55.35
77685;BME280;66844;46.092;18.268;2023-06-14T02:50:53;98935.69;;;14.62;55.43
77685;BME280;66844;46.092;18.268;2023-06-14T02:51:25;98933.88;;;14.62;55.75
77685;BME280;66844;46.092;18.268;2023-06-14T02:51:57;98935.81;;;14.60;55.63
77685;BME280;66844;46.092;18.268;2023-06-14T02:52:29;98937.53;;;14.61;55.82
77685;BME280;66844;46.092;18.268;2023-06-14T02:53:01;98934.72;;;14.63;55.92
77685;BME280;66844;46.092;18.268;2023-06-14T02:53:34;98938.38;;;14.62;56.06
77685;BME280;66844;46.092;18.268;2023-06-14T02:54:06;98936.56;;;14.62;56.29
77685;BME280;66844;46.092;18.268;2023-06-14T02:54:38;98943.84;;;14.60;56.41
77685;BME280;66844;46.092;18.268;2023-06-14T02:55:10;98939.72;;;14.56;56.31
77685;BME280;66844;46.092;18.268;2023-06-14T02:55:42;98936.94;;;14.57;56.07